createdAt,value
2022-10-24T00:01:44.759Z,13.25
2022-10-24T00:04:13.813Z,13.27
2022-10-24T00:06:43.491Z,13.22
2022-10-24T00:09:13.108Z,13.25
2022-10-24T00:11:44.541Z,13.27
2022-10-24T00:14:14.508Z,13.28
2022-10-24T00:16:43.695Z,13.29
2022-10-24T00:19:12.134Z,13.27
2022-10-24T00:21:41.038Z,13.27
2022-10-24T00:24:11.134Z,13.27
2022-10-24T00:26:40.207Z,13.28
2022-10-24T00:29:09.821Z,13.28
2022-10-24T00:31:42.145Z,13.29
2022-10-24T00:34:11.384Z,13.30
2022-10-24T00:36:40.813Z,13.28
2022-10-24T00:39:09.474Z,13.28
2022-10-24T00:41:43.019Z,13.26
2022-10-24T00:44:23.094Z,13.30
2022-10-24T00:47:00.623Z,13.30
2022-10-24T00:49:36.550Z,13.32
2022-10-24T00:52:10.586Z,13.32
2022-10-24T00:54:42.103Z,13.31
2022-10-24T00:57:21.061Z,13.33
2022-10-24T00:59:56.731Z,13.34
2022-10-24T01:02:26.874Z,13.33
2022-10-24T01:04:56.566Z,13.34
2022-10-24T01:07:49.484Z,13.32
2022-10-24T01:10:39.870Z,13.30
2022-10-24T01:13:23.521Z,13.30
2022-10-24T01:16:03.864Z,13.28
2022-10-24T01:18:44.583Z,13.29
2022-10-24T01:21:30.141Z,13.28
2022-10-24T01:24:49.828Z,13.29
2022-10-24T01:27:46.815Z,13.30
2022-10-24T01:30:19.643Z,13.28
2022-10-24T01:32:59.662Z,13.28
2022-10-24T01:35:41.119Z,13.25
2022-10-24T01:38:20.483Z,13.25
2022-10-24T01:40:57.320Z,13.26
2022-10-24T01:43:31.951Z,13.24
2022-10-24T01:46:08.833Z,13.20
2022-10-24T01:48:46.023Z,13.19
2022-10-24T01:51:19.630Z,13.15
2022-10-24T01:53:50.481Z,13.17
2022-10-24T01:56:18.937Z,13.13
2022-10-24T01:58:48.051Z,13.14
2022-10-24T02:01:26.622Z,13.01
2022-10-24T02:04:03.551Z,12.99
2022-10-24T02:06:39.459Z,12.96
2022-10-24T02:09:15.904Z,12.96
2022-10-24T02:11:48.763Z,12.95
2022-10-24T02:14:25.366Z,12.93
2022-10-24T02:16:56.402Z,12.88
2022-10-24T02:19:25.154Z,12.88
2022-10-24T02:22:05.212Z,12.86
2022-10-24T02:24:40.672Z,12.89
2022-10-24T02:27:17.379Z,12.90
2022-10-24T02:29:59.407Z,12.90
2022-10-24T02:32:36.915Z,12.90
2022-10-24T02:35:09.614Z,12.85
2022-10-24T02:37:46.324Z,12.84
2022-10-24T02:40:20.317Z,12.84
2022-10-24T02:42:55.797Z,12.83
2022-10-24T02:45:26.388Z,12.82
2022-10-24T02:48:04.677Z,12.81
2022-10-24T02:50:34.755Z,12.81
2022-10-24T02:53:03.750Z,12.74
2022-10-24T02:55:32.306Z,12.75
2022-10-24T02:58:03.006Z,12.77
2022-10-24T03:00:31.682Z,12.78
2022-10-24T03:03:02.317Z,12.76
2022-10-24T03:05:31.516Z,12.75
2022-10-24T03:08:00.819Z,12.71
2022-10-24T03:10:29.565Z,12.70
2022-10-24T03:12:58.869Z,12.70
2022-10-24T03:15:27.434Z,12.67
2022-10-24T03:17:56.010Z,12.65
2022-10-24T03:20:26.243Z,12.63
2022-10-24T03:22:55.506Z,12.66
2022-10-24T03:25:24.051Z,12.61
2022-10-24T03:27:52.547Z,12.61
2022-10-24T03:30:21.585Z,12.60
2022-10-24T03:32:51.559Z,12.60
2022-10-24T03:35:20.763Z,12.60
2022-10-24T03:37:50.647Z,12.61
2022-10-24T03:40:19.498Z,12.60
2022-10-24T03:42:48.256Z,12.62
2022-10-24T03:45:17.564Z,12.63
2022-10-24T03:47:46.083Z,12.63
2022-10-24T03:50:14.511Z,12.64
2022-10-24T03:52:43.719Z,12.63
2022-10-24T03:55:15.107Z,12.62
2022-10-24T03:57:43.929Z,12.61
2022-10-24T04:00:14.546Z,12.61
2022-10-24T04:02:44.018Z,12.61
2022-10-24T04:05:14.575Z,12.59
2022-10-24T04:07:43.472Z,12.59
2022-10-24T04:10:14.302Z,12.58
2022-10-24T04:12:42.889Z,12.60
2022-10-24T04:15:12.659Z,12.58
2022-10-24T04:17:41.772Z,12.58
2022-10-24T04:20:12.799Z,12.58
2022-10-24T04:22:42.047Z,12.57
2022-10-24T04:25:12.346Z,12.55
2022-10-24T04:27:42.445Z,12.55
2022-10-24T04:30:16.893Z,12.54
2022-10-24T04:32:47.620Z,12.55
2022-10-24T04:35:16.942Z,12.53
2022-10-24T04:37:47.219Z,12.52
2022-10-24T04:40:18.512Z,12.52
2022-10-24T04:42:49.849Z,12.52
2022-10-24T04:45:20.486Z,12.48
2022-10-24T04:47:49.877Z,12.48
2022-10-24T04:50:19.332Z,12.47
2022-10-24T04:52:47.849Z,12.43
2022-10-24T04:55:16.610Z,12.43
2022-10-24T04:57:45.506Z,12.38
2022-10-24T05:00:17.141Z,12.37
2022-10-24T05:02:45.719Z,12.37
2022-10-24T05:05:14.243Z,12.32
2022-10-24T05:07:44.351Z,12.30
2022-10-24T05:10:14.912Z,12.30
2022-10-24T05:12:44.617Z,12.29
2022-10-24T05:15:28.907Z,12.26
2022-10-24T05:17:57.704Z,12.25
2022-10-24T05:20:26.528Z,12.22
2022-10-24T05:22:55.103Z,12.23
2022-10-24T05:25:24.460Z,12.21
2022-10-24T05:27:53.850Z,12.20
2022-10-24T05:30:24.955Z,12.16
2022-10-24T05:32:53.707Z,12.15
2022-10-24T05:35:22.297Z,12.12
2022-10-24T05:37:50.738Z,12.09
2022-10-24T05:40:19.569Z,12.08
2022-10-24T05:42:48.885Z,12.06
2022-10-24T05:45:17.404Z,12.02
2022-10-24T05:47:48.334Z,12.01
2022-10-24T05:50:17.978Z,11.98
2022-10-24T05:52:47.431Z,11.95
2022-10-24T05:55:18.144Z,11.92
2022-10-24T05:57:48.141Z,11.94
2022-10-24T06:00:19.430Z,11.92
2022-10-24T06:02:49.485Z,11.89
2022-10-24T06:05:18.607Z,11.85
2022-10-24T06:07:49.446Z,11.79
2022-10-24T06:10:18.262Z,11.80
2022-10-24T06:12:47.532Z,11.76
2022-10-24T06:15:16.762Z,11.73
2022-10-24T06:17:45.373Z,11.71
2022-10-24T06:20:15.981Z,11.70
2022-10-24T06:22:46.237Z,11.68
2022-10-24T06:25:16.135Z,11.68
2022-10-24T06:27:45.346Z,11.66
2022-10-24T06:30:15.387Z,11.63
2022-10-24T06:32:44.794Z,11.63
2022-10-24T06:35:16.063Z,11.63
2022-10-24T06:37:47.358Z,11.61
2022-10-24T06:40:18.597Z,11.63
2022-10-24T06:42:47.591Z,11.61
2022-10-24T06:45:18.583Z,11.63
2022-10-24T06:47:51.813Z,11.58
2022-10-24T06:50:24.150Z,11.57
2022-10-24T06:52:53.282Z,11.56
2022-10-24T06:55:27.077Z,11.55
2022-10-24T06:57:58.334Z,11.57
2022-10-24T07:02:58.304Z,11.54
2022-10-24T07:05:28.384Z,11.55
2022-10-24T07:07:57.889Z,11.58
2022-10-24T07:10:27.435Z,11.59
2022-10-24T07:12:56.394Z,11.56
2022-10-24T07:15:24.990Z,11.57
2022-10-24T07:17:53.443Z,11.59
2022-10-24T07:20:22.143Z,11.61
2022-10-24T07:22:52.083Z,11.62
2022-10-24T07:25:20.828Z,11.62
2022-10-24T07:27:52.613Z,11.63
2022-10-24T07:30:21.429Z,11.66
2022-10-24T07:32:51.039Z,11.68
2022-10-24T07:35:20.088Z,11.70
2022-10-24T07:37:48.905Z,11.72
2022-10-24T07:40:19.184Z,11.75
2022-10-24T07:42:48.545Z,11.75
2022-10-24T07:45:17.649Z,11.78
2022-10-24T07:47:46.680Z,11.79
2022-10-24T07:50:17.521Z,11.78
2022-10-24T07:52:46.042Z,11.79
2022-10-24T07:55:14.738Z,11.81
2022-10-24T07:57:45.004Z,11.83
2022-10-24T08:00:19.931Z,11.86
2022-10-24T08:05:22.115Z,11.88
2022-10-24T08:07:55.914Z,11.87
2022-10-24T08:10:40.359Z,11.90
2022-10-24T08:13:12.845Z,11.92
2022-10-24T08:15:42.203Z,11.95
2022-10-24T08:18:10.778Z,11.96
2022-10-24T08:20:39.412Z,12.00
2022-10-24T08:23:08.123Z,12.02
2022-10-24T08:25:40.832Z,12.04
2022-10-24T08:28:11.212Z,12.07
2022-10-24T08:30:40.386Z,12.11
2022-10-24T08:33:09.281Z,12.16
2022-10-24T08:35:38.355Z,12.21
2022-10-24T08:38:06.910Z,12.25
2022-10-24T08:40:36.308Z,12.28
2022-10-24T08:43:04.870Z,12.32
2022-10-24T08:45:47.660Z,12.37
2022-10-24T08:48:27.413Z,12.41
2022-10-24T08:51:12.427Z,12.46
2022-10-24T08:53:43.057Z,12.50
2022-10-24T08:56:14.200Z,12.54
2022-10-24T08:58:48.649Z,12.58
2022-10-24T09:01:31.292Z,12.61
2022-10-24T09:04:07.978Z,12.66
2022-10-24T09:06:38.669Z,12.70
2022-10-24T09:09:21.192Z,12.74
2022-10-24T09:11:56.159Z,12.79
2022-10-24T09:14:29.513Z,12.85
2022-10-24T09:17:11.676Z,12.90
2022-10-24T09:19:41.038Z,12.97
2022-10-24T09:22:13.655Z,13.06
2022-10-24T09:24:48.554Z,13.11
2022-10-24T09:29:57.918Z,13.32
2022-10-24T09:32:32.458Z,13.44
2022-10-24T09:35:07.184Z,13.53
2022-10-24T09:37:44.125Z,13.60
2022-10-24T09:40:22.153Z,13.70
2022-10-24T09:43:01.946Z,13.81
2022-10-24T09:45:41.712Z,13.88
2022-10-24T09:48:27.762Z,13.96
2022-10-24T09:51:02.082Z,14.09
2022-10-24T09:53:34.532Z,14.14
2022-10-24T09:56:12.569Z,14.19
2022-10-24T09:58:42.312Z,14.25
2022-10-24T10:01:23.921Z,14.35
2022-10-24T10:04:08.924Z,14.47
2022-10-24T10:06:46.565Z,14.60
2022-10-24T10:09:25.077Z,14.82
2022-10-24T10:12:05.804Z,14.93
2022-10-24T10:14:42.011Z,15.02
2022-10-24T10:17:25.852Z,15.17
2022-10-24T10:19:57.109Z,15.20
2022-10-24T10:22:29.330Z,15.21
2022-10-24T10:24:59.221Z,15.27
2022-10-24T10:27:33.921Z,15.32
2022-10-24T10:30:21.980Z,15.40
2022-10-24T10:33:14.160Z,15.48
2022-10-24T10:35:54.534Z,15.55
2022-10-24T10:38:52.075Z,15.58
2022-10-24T10:41:38.748Z,15.65
2022-10-24T10:44:28.533Z,15.67
2022-10-24T10:47:13.812Z,15.70
2022-10-24T10:49:43.955Z,15.72
2022-10-24T10:52:24.357Z,15.75
2022-10-24T10:55:25.299Z,15.77
2022-10-24T10:58:08.710Z,15.81
2022-10-24T11:00:55.074Z,15.90
2022-10-24T11:03:38.291Z,15.98
2022-10-24T11:06:31.678Z,16.07
2022-10-24T11:09:31.124Z,16.33
2022-10-24T11:12:16.454Z,16.41
2022-10-24T11:14:51.962Z,16.51
2022-10-24T11:17:28.408Z,16.62
2022-10-24T11:20:08.717Z,16.63
2022-10-24T11:22:46.776Z,16.64
2022-10-24T11:25:28.037Z,16.70
2022-10-24T11:28:07.976Z,16.68
2022-10-24T11:30:46.488Z,16.74
2022-10-24T11:33:23.430Z,16.79
2022-10-24T11:36:15.886Z,16.83
2022-10-24T11:38:53.157Z,16.90
2022-10-24T11:41:47.868Z,16.98
2022-10-24T11:44:39.819Z,17.05
2022-10-24T11:47:56.129Z,17.11
2022-10-24T11:50:35.001Z,17.16
2022-10-24T11:53:19.312Z,17.25
2022-10-24T11:55:56.132Z,17.30
2022-10-24T11:58:31.217Z,17.36
2022-10-24T12:01:25.278Z,17.37
2022-10-24T12:04:27.904Z,17.38
2022-10-24T12:07:32.610Z,17.41
2022-10-24T12:10:48.495Z,17.49
2022-10-24T12:13:51.579Z,17.51
2022-10-24T12:16:39.090Z,17.51
2022-10-24T12:19:15.321Z,17.53
2022-10-24T12:21:51.850Z,17.58
2022-10-24T12:24:32.075Z,17.60
2022-10-24T12:27:03.856Z,17.66
2022-10-24T12:29:38.952Z,17.71
2022-10-24T12:32:31.615Z,17.72
2022-10-24T12:35:29.854Z,17.73
2022-10-24T12:37:52.473Z,17.75
2022-10-24T12:40:55.888Z,17.76
2022-10-24T12:43:33.720Z,17.72
2022-10-24T12:46:55.745Z,17.71
2022-10-24T12:49:32.385Z,17.68
2022-10-24T12:52:39.891Z,17.69
2022-10-24T12:55:38.307Z,17.70
2022-10-24T12:58:25.138Z,17.71
2022-10-24T13:00:57.996Z,17.67
2022-10-24T13:03:57.225Z,17.69
2022-10-24T13:06:32.398Z,17.71
2022-10-24T13:09:24.912Z,17.75
2022-10-24T13:12:13.834Z,17.73
2022-10-24T13:15:14.326Z,17.71
2022-10-24T13:17:53.385Z,17.71
2022-10-24T13:20:27.912Z,17.72
2022-10-24T13:23:04.702Z,17.71
2022-10-24T13:25:39.559Z,17.72
2022-10-24T13:28:40.481Z,17.76
2022-10-24T13:31:49.629Z,17.76
2022-10-24T13:34:31.695Z,17.80
2022-10-24T13:37:14.026Z,17.83
2022-10-24T13:39:50.543Z,17.80
2022-10-24T13:42:28.913Z,17.76
2022-10-24T13:45:03.719Z,17.73
2022-10-24T13:47:38.400Z,17.75
2022-10-24T13:50:18.577Z,17.75
2022-10-24T13:52:54.913Z,17.71
2022-10-24T13:55:31.830Z,17.76
2022-10-24T13:58:09.638Z,17.78
2022-10-24T14:00:42.526Z,17.77
2022-10-24T14:03:18.073Z,17.75
2022-10-24T14:05:52.360Z,17.74
2022-10-24T14:08:28.091Z,17.74
2022-10-24T14:10:59.601Z,17.74
2022-10-24T14:13:31.152Z,17.76
2022-10-24T14:16:03.628Z,17.74
2022-10-24T14:18:32.661Z,17.74
2022-10-24T14:21:06.249Z,17.77
2022-10-24T14:23:41.652Z,17.80
2022-10-24T14:26:19.655Z,17.82
2022-10-24T14:28:51.770Z,17.79
2022-10-24T14:31:25.998Z,17.83
2022-10-24T14:33:57.542Z,17.83
2022-10-24T14:36:31.361Z,17.85
2022-10-24T14:39:02.470Z,17.88
2022-10-24T14:41:34.101Z,17.87
2022-10-24T14:44:03.926Z,17.87
2022-10-24T14:46:39.640Z,17.86
2022-10-24T14:49:33.350Z,17.85
2022-10-24T14:52:11.421Z,17.83
2022-10-24T14:54:45.715Z,17.75
2022-10-24T14:57:20.976Z,17.77
2022-10-24T14:59:54.986Z,17.78
2022-10-24T15:02:30.151Z,17.78
2022-10-24T15:05:30.025Z,17.73
2022-10-24T15:08:22.497Z,17.73
2022-10-24T15:11:17.796Z,17.63
2022-10-24T15:14:00.031Z,17.62
2022-10-24T15:16:39.278Z,17.64
2022-10-24T15:19:17.914Z,17.63
2022-10-24T15:21:48.107Z,17.63
2022-10-24T15:24:25.868Z,17.61
2022-10-24T15:27:11.691Z,17.57
2022-10-24T15:29:42.060Z,17.56
2022-10-24T15:32:12.517Z,17.53
2022-10-24T15:34:41.753Z,17.47
2022-10-24T15:37:22.405Z,17.46
2022-10-24T15:39:51.852Z,17.42
2022-10-24T15:42:22.987Z,17.37
2022-10-24T15:44:51.899Z,17.34
2022-10-24T15:47:23.881Z,17.30
2022-10-24T15:49:53.230Z,17.25
2022-10-24T15:52:22.012Z,17.20
2022-10-24T15:54:50.984Z,17.14
2022-10-24T15:57:21.648Z,17.12
2022-10-24T15:59:50.641Z,17.07
2022-10-24T16:02:25.659Z,17.05
2022-10-24T16:04:54.270Z,17.02
2022-10-24T16:07:22.889Z,16.98
2022-10-24T16:09:51.350Z,16.92
2022-10-24T16:12:21.331Z,16.88
2022-10-24T16:14:49.834Z,16.83
2022-10-24T16:17:18.713Z,16.77
2022-10-24T16:19:47.177Z,16.63
2022-10-24T16:22:16.617Z,16.56
2022-10-24T16:24:45.205Z,16.49
2022-10-24T16:27:13.722Z,16.43
2022-10-24T16:29:43.629Z,16.34
2022-10-24T16:32:13.458Z,16.32
2022-10-24T16:34:42.934Z,16.22
2022-10-24T16:37:11.408Z,16.16
2022-10-24T16:39:40.094Z,16.07
2022-10-24T16:42:09.708Z,16.03
2022-10-24T16:44:38.250Z,15.95
2022-10-24T16:47:10.136Z,15.95
2022-10-24T16:49:38.881Z,15.86
2022-10-24T16:52:08.821Z,15.79
2022-10-24T16:54:37.408Z,15.71
2022-10-24T16:57:06.192Z,15.68
2022-10-24T16:59:34.764Z,15.59
2022-10-24T17:02:04.394Z,15.53
2022-10-24T17:04:35.612Z,15.48
2022-10-24T17:07:04.511Z,15.47
2022-10-24T17:09:33.270Z,15.42
2022-10-24T17:12:01.863Z,15.36
2022-10-24T17:14:31.086Z,15.30
2022-10-24T17:16:59.925Z,15.22
2022-10-24T17:19:29.367Z,15.16
2022-10-24T17:22:00.402Z,15.14
2022-10-24T17:24:29.937Z,15.15
2022-10-24T17:26:59.034Z,15.13
2022-10-24T17:29:30.914Z,15.12
2022-10-24T17:32:00.703Z,15.01
2022-10-24T17:34:30.228Z,14.98
2022-10-24T17:37:11.858Z,14.94
2022-10-24T17:39:50.108Z,14.91
2022-10-24T17:42:20.211Z,14.88
2022-10-24T17:44:49.971Z,14.86
2022-10-24T17:47:18.990Z,14.84
2022-10-24T17:49:47.597Z,14.74
2022-10-24T17:52:25.401Z,14.75
2022-10-24T17:54:54.036Z,14.66
2022-10-24T17:57:22.837Z,14.58
2022-10-24T17:59:54.262Z,14.53
2022-10-24T18:02:23.444Z,14.49
2022-10-24T18:04:53.128Z,14.44
2022-10-24T18:07:24.656Z,14.44
2022-10-24T18:10:00.283Z,14.42
2022-10-24T18:12:28.922Z,14.42
2022-10-24T18:14:57.991Z,14.35
2022-10-24T18:17:26.668Z,14.31
2022-10-24T18:19:55.388Z,14.31
2022-10-24T18:22:25.321Z,14.28
2022-10-24T18:24:53.959Z,14.20
2022-10-24T18:27:22.605Z,14.17
2022-10-24T18:29:51.225Z,14.17
2022-10-24T18:32:20.633Z,14.13
2022-10-24T18:34:49.932Z,14.03
2022-10-24T18:37:34.636Z,14.04
2022-10-24T18:40:07.813Z,14.04
2022-10-24T18:42:47.186Z,13.96
2022-10-24T18:45:22.572Z,13.96
2022-10-24T18:47:53.364Z,13.94
2022-10-24T18:50:26.176Z,13.94
2022-10-24T18:53:03.275Z,13.82
2022-10-24T18:55:36.721Z,13.81
2022-10-24T18:58:06.110Z,13.83
2022-10-24T19:00:38.259Z,13.78
2022-10-24T19:03:22.958Z,13.68
2022-10-24T19:06:00.058Z,13.67
2022-10-24T19:08:29.134Z,13.65
2022-10-24T19:11:00.130Z,13.65
2022-10-24T19:13:29.631Z,13.60
2022-10-24T19:16:01.934Z,13.57
2022-10-24T19:18:35.602Z,13.49
2022-10-24T19:21:05.648Z,13.49
2022-10-24T19:23:34.313Z,13.47
2022-10-24T19:26:04.168Z,13.44
2022-10-24T19:28:34.112Z,13.46
2022-10-24T19:31:03.451Z,13.40
2022-10-24T19:33:33.886Z,13.33
2022-10-24T19:36:06.273Z,13.33
2022-10-24T19:38:41.657Z,13.31
2022-10-24T19:41:11.869Z,13.25
2022-10-24T19:43:40.890Z,13.24
2022-10-24T19:46:24.920Z,13.20
2022-10-24T19:48:53.462Z,13.18
2022-10-24T19:51:23.364Z,13.15
2022-10-24T19:53:54.005Z,13.11
2022-10-24T19:56:34.846Z,13.06
2022-10-24T19:59:03.695Z,13.06
2022-10-24T20:01:33.018Z,13.06
2022-10-24T20:04:02.462Z,12.96
2022-10-24T20:06:31.162Z,12.88
2022-10-24T20:08:59.764Z,12.91
2022-10-24T20:11:30.549Z,12.93
2022-10-24T20:13:59.169Z,12.89
2022-10-24T20:16:27.694Z,12.89
2022-10-24T20:18:56.205Z,12.85
2022-10-24T20:21:24.677Z,12.83
2022-10-24T20:23:53.457Z,12.82
2022-10-24T20:26:25.662Z,12.78
2022-10-24T20:28:57.392Z,12.74
2022-10-24T20:31:30.065Z,12.70
2022-10-24T20:34:05.118Z,12.70
2022-10-24T20:36:38.261Z,12.67
2022-10-24T20:39:08.643Z,12.63
2022-10-24T20:41:38.100Z,12.58
2022-10-24T20:44:08.601Z,12.58
2022-10-24T20:46:37.759Z,12.57
2022-10-24T20:49:06.406Z,12.56
2022-10-24T20:51:37.903Z,12.57
2022-10-24T20:54:11.291Z,12.56
2022-10-24T20:56:42.520Z,12.58
2022-10-24T20:59:14.915Z,12.58
2022-10-24T21:01:44.378Z,12.60
2022-10-24T21:04:15.748Z,12.59
2022-10-24T21:06:47.231Z,12.57
2022-10-24T21:09:16.109Z,12.56
2022-10-24T21:11:45.514Z,12.53
2022-10-24T21:14:18.147Z,12.53
2022-10-24T21:16:46.714Z,12.45
2022-10-24T21:19:15.688Z,12.45
2022-10-24T21:21:44.254Z,12.44
2022-10-24T21:24:17.882Z,12.43
2022-10-24T21:26:46.472Z,12.40
2022-10-24T21:29:33.595Z,12.40
2022-10-24T21:32:02.909Z,12.39
2022-10-24T21:34:34.288Z,12.39
2022-10-24T21:37:04.461Z,12.38
2022-10-24T21:39:33.289Z,12.41
2022-10-24T21:42:02.254Z,12.39
2022-10-24T21:44:32.175Z,12.39
2022-10-24T21:47:00.800Z,12.39
2022-10-24T21:49:29.410Z,12.36
2022-10-24T21:51:58.309Z,12.39
2022-10-24T21:54:28.764Z,12.36
2022-10-24T21:56:57.704Z,12.37
2022-10-24T21:59:26.209Z,12.37
2022-10-24T22:01:57.991Z,12.33
2022-10-24T22:04:27.337Z,12.32
2022-10-24T22:06:55.882Z,12.34
2022-10-24T22:09:24.914Z,12.33
2022-10-24T22:11:58.025Z,12.33
2022-10-24T22:14:26.964Z,12.29
2022-10-24T22:16:57.141Z,12.27
2022-10-24T22:19:26.640Z,12.28
2022-10-24T22:21:55.328Z,12.26
2022-10-24T22:24:25.368Z,12.28
2022-10-24T22:26:54.580Z,12.31
2022-10-24T22:29:25.562Z,12.34
2022-10-24T22:31:57.312Z,12.28
2022-10-24T22:34:28.521Z,12.32
2022-10-24T22:37:12.758Z,12.33
2022-10-24T22:39:43.320Z,12.35
2022-10-24T22:42:15.955Z,12.37
2022-10-24T22:44:47.465Z,12.38
2022-10-24T22:47:44.281Z,12.39
2022-10-24T22:50:39.816Z,12.38
2022-10-24T22:53:14.379Z,12.36
2022-10-24T22:55:59.331Z,12.37
2022-10-24T22:58:28.661Z,12.39
2022-10-24T23:01:06.059Z,12.41
2022-10-24T23:03:58.042Z,12.43
2022-10-24T23:06:39.335Z,12.45
2022-10-24T23:09:07.905Z,12.49
2022-10-24T23:11:37.423Z,12.49
2022-10-24T23:14:07.989Z,12.49
2022-10-24T23:16:46.626Z,12.50
2022-10-24T23:19:23.065Z,12.46
2022-10-24T23:21:58.795Z,12.46
2022-10-24T23:24:28.514Z,12.45
2022-10-24T23:27:28.968Z,12.45
2022-10-24T23:29:58.945Z,12.46
2022-10-24T23:32:31.365Z,12.48
2022-10-24T23:35:05.220Z,12.51
2022-10-24T23:37:37.858Z,12.51
2022-10-24T23:40:27.002Z,12.49
2022-10-24T23:42:56.740Z,12.51
2022-10-24T23:45:28.252Z,12.51
2022-10-24T23:48:20.487Z,12.52
2022-10-24T23:51:00.010Z,12.52
2022-10-24T23:53:43.578Z,12.51
2022-10-24T23:56:15.414Z,12.54
2022-10-24T23:58:44.373Z,12.58
